• Join FlightAware (Why Join?)
  • Login
  • US Flag 
02:58AM EDT


 

Airport Tracker/Info


-or-


 

Live Flight TrackerFlight Track Log ✈ N87CH ✈ 07-Jul-2013 ✈ KPSC - S12

Flight Track Log - Related Links

Times and Time Zones

All times are in EDT time to prevent confusion due to time zone crossing. See the N87CH flight status page for this flight to view local times or setup timezone preferences in your user account.

Time Position Orientation Groundspeed Altitude Reporting Facility
EDT Latitude Longitude Course Direction KTS MPH feet Rate Location/Type
01:42PM 46.2372 -119.1667 237° Southwest 148 170 1,700  Level Seattle Center
01:43PM 46.2136 -119.2125 233° Southwest 158 182 3,100 1,440 Climbing Seattle Center
01:44PM 46.1953 -119.2692 245° Southwest 157 181 4,700 1,680 Climbing Seattle Center
01:45PM 46.1769 -119.3397 249° West 156 180 6,600 1,560 Climbing Seattle Center
01:46PM 46.1553 -119.3989 242° Southwest 167 192 8,000 1,500 Climbing Seattle Center
01:47PM 46.0889 -119.5376 237° Southwest  Level FlightAware Approximate
01:47PM 46.1347 -119.4567 243° Southwest 162 186 9,700  Level Seattle Center
01:48PM 46.1136 -119.5067 239° Southwest 148 170 11,100 1,260 Climbing Seattle Center
01:49PM 46.0928 -119.5586 240° Southwest 150 173 12,300 1,200 Climbing Seattle Center
01:50PM 46.0722 -119.6097 240° Southwest 150 173 13,600 1,080 Climbing Seattle Center
01:51PM 46.0525 -119.6606 241° Southwest 148 170 14,600 1,020 Climbing Seattle Center
01:52PM 46.0294 -119.7125 237° Southwest 153 176 15,800 600 Climbing Seattle Center
01:53PM 46.0058 -119.7717 240° Southwest 174 200 15,900 60 Climbing Seattle Center
01:54PM 45.9678 -119.8567 237° Southwest 209 241 16,000 60 Climbing Seattle Center
01:55PM 45.9386 -119.9314 241° Southwest 215 247 16,100  Climbing Seattle Center
01:56PM 45.9083 -120.0047 239° Southwest 215 247 16,000 -120 Descending Seattle Center
01:57PM 45.8783 -120.0794 240° Southwest 217 250 15,900 -60 Descending Seattle Center
01:58PM 45.8478 -120.1539 240° Southwest 216 249 15,900  Level Seattle Center
01:59PM 45.8189 -120.2294 241° Southwest 218 251 15,900  Level Seattle Center
02:00PM 45.7894 -120.3036 240° Southwest 216 249 15,900  Level Seattle Center
02:01PM 45.7608 -120.3786 241° Southwest 215 247 15,900  Level Seattle Center
02:02PM 45.7264 -120.4694 242° Southwest 216 249 15,900  Level Seattle Center
02:03PM 45.6975 -120.5428 241° Southwest 214 246 15,900  Level Seattle Center
02:04PM 45.6706 -120.6164 242° Southwest 211 243 15,900  Level Seattle Center
02:05PM 45.6350 -120.6839 233° Southwest 215 247 15,900  Level Seattle Center
02:06PM 45.5911 -120.7378 221° Southwest 210 242 15,900 -780 Level Seattle Center
02:07PM 45.5547 -120.8169 237° Southwest 225 259 14,400 -720 Descending Seattle Center
02:08PM 45.5228 -120.9022 242° Southwest 242 278 14,500  Climbing Seattle Center
02:09PM 45.4969 -120.9775 244° Southwest 222 255 14,500  Level Seattle Center
02:10PM 45.4708 -121.0533 244° Southwest 215 247 14,500  Level Seattle Center
02:11PM 45.4378 -121.1408 242° Southwest 212 244 14,500  Level Seattle Center
02:12PM 45.4117 -121.2153 243° Southwest 211 243 14,500  Level Seattle Center
02:13PM 45.3850 -121.2894 243° Southwest 212 244 14,500  Level Seattle Center
02:14PM 45.3581 -121.3642 243° Southwest 213 245 14,500  Level Seattle Center
02:15PM 45.3325 -121.4394 244° Southwest 214 246 14,500  Level Seattle Center
02:16PM 45.3053 -121.5136 242° Southwest 214 246 14,500 60 Level Seattle Center
02:17PM 45.2794 -121.5894 244° Southwest 214 246 14,700  Climbing Seattle Center
02:18PM 45.2508 -121.6642 241° Southwest 216 249 14,500 -60 Descending Seattle Center
02:19PM 45.2156 -121.7522 240° Southwest 216 249 14,600  Climbing Seattle Center
02:20PM 45.1842 -121.8236 238° Southwest 215 247 14,600  Level Seattle Center
02:21PM 45.1528 -121.8942 238° Southwest 214 246 14,600 -60 Level Seattle Center
02:22PM 45.1236 -121.9650 240° Southwest 213 245 14,500 -180 Descending Seattle Center
02:23PM 45.0922 -122.0364 238° Southwest 213 245 14,300 -480 Descending Seattle Center
02:24PM 45.0586 -122.1122 238° Southwest 223 257 13,600 -540 Descending Seattle Center
02:25PM 45.0228 -122.1900 237° Southwest 233 268 13,200 -540 Descending Seattle Center
02:26PM 44.9914 -122.2683 240° Southwest 230 265 12,600 -1,020 Descending Seattle Center
02:27PM 44.9489 -122.3656 238° Southwest 240 276 11,200 -1,320 Descending Seattle Center
02:29PM 44.9156 -122.4461 240° Southwest 239 275 9,900 -1,260 Descending Seattle Center
02:30PM 44.8811 -122.5264 239° Southwest 239 275 8,700 -1,140 Descending Seattle Center
02:31PM 44.8525 -122.5950 240° Southwest 222 255 7,700 -1,080 Descending Seattle Center
02:32PM 44.8147 -122.6700 235° Southwest 221 254 6,500 -1,140 Descending Seattle Center
02:33PM 44.7786 -122.7400 234° Southwest 220 253 5,400 -1,020 Descending Seattle Center
02:34PM 44.7442 -122.8111 236° Southwest 220 253 4,500 -900 Descending Seattle Center